createdAt,value
2017-11-27T00:00:34.943Z,0
2017-11-27T00:01:43.779Z,0
2017-11-27T00:02:52.621Z,0
2017-11-27T00:04:01.463Z,0
2017-11-27T00:05:10.304Z,0
2017-11-27T00:06:19.432Z,0
2017-11-27T00:07:28.272Z,0
2017-11-27T00:08:37.115Z,0
2017-11-27T00:09:45.956Z,0
2017-11-27T00:10:54.794Z,0
2017-11-27T00:12:04.216Z,0
2017-11-27T00:13:13.057Z,0
2017-11-27T00:14:22.185Z,0
2017-11-27T00:15:31.318Z,0
2017-11-27T00:16:40.157Z,0
2017-11-27T00:17:49.297Z,0
2017-11-27T00:18:58.137Z,0
2017-11-27T00:20:06.980Z,0
2017-11-27T00:21:15.817Z,0
2017-11-27T00:22:24.939Z,0
2017-11-27T00:23:33.831Z,0
2017-11-27T00:24:42.674Z,0
2017-11-27T00:25:51.794Z,0
2017-11-27T00:27:00.633Z,0
2017-11-27T00:28:09.473Z,0
2017-11-27T00:29:18.617Z,0
2017-11-27T00:30:28.026Z,0
2017-11-27T00:31:36.867Z,0
2017-11-27T00:32:45.713Z,0
2017-11-27T00:33:55.134Z,0
2017-11-27T00:35:04.127Z,0
2017-11-27T00:36:12.970Z,0
2017-11-27T00:37:21.812Z,0
2017-11-27T00:38:30.650Z,0
2017-11-27T00:39:39.494Z,0
2017-11-27T00:40:48.491Z,0
2017-11-27T00:41:57.330Z,0
2017-11-27T00:43:06.169Z,0
2017-11-27T00:44:15.013Z,0
2017-11-27T00:45:23.871Z,0
2017-11-27T00:46:32.845Z,0
2017-11-27T00:47:41.687Z,0
2017-11-27T00:48:50.526Z,0
2017-11-27T00:49:59.369Z,0
2017-11-27T00:51:08.209Z,0
2017-11-27T00:52:17.201Z,0
2017-11-27T00:53:26.042Z,0
2017-11-27T00:54:34.884Z,0
2017-11-27T00:55:43.725Z,0
2017-11-27T00:56:52.569Z,0
2017-11-27T00:58:01.408Z,0
2017-11-27T00:59:10.249Z,0
2017-11-27T01:00:19.093Z,0
2017-11-27T01:01:27.932Z,0
2017-11-27T01:02:36.777Z,0
2017-11-27T01:03:45.621Z,0
2017-11-27T01:04:54.462Z,0
2017-11-27T01:06:03.306Z,0
2017-11-27T01:07:12.157Z,0
2017-11-27T01:08:21.270Z,0
2017-11-27T01:09:30.541Z,0
2017-11-27T01:10:39.379Z,0
2017-11-27T01:11:48.496Z,0
2017-11-27T01:12:57.335Z,0
2017-11-27T01:14:06.483Z,0
2017-11-27T01:15:15.630Z,0
2017-11-27T01:16:24.470Z,0
2017-11-27T01:17:33.310Z,0
2017-11-27T01:18:42.148Z,0
2017-11-27T01:19:50.986Z,0
2017-11-27T01:20:59.985Z,0
2017-11-27T01:22:08.817Z,0
2017-11-27T01:23:17.691Z,0
2017-11-27T01:24:26.502Z,0
2017-11-27T01:25:35.342Z,0
2017-11-27T01:26:44.893Z,0
2017-11-27T01:27:53.733Z,0
2017-11-27T01:29:02.578Z,0
2017-11-27T01:30:11.416Z,0
2017-11-27T01:31:20.261Z,0
2017-11-27T01:32:29.101Z,0
2017-11-27T01:33:37.940Z,0
2017-11-27T01:34:46.782Z,0
2017-11-27T01:35:55.901Z,0
2017-11-27T01:37:04.743Z,0
2017-11-27T01:38:13.687Z,0
2017-11-27T01:39:23.101Z,0
2017-11-27T01:40:31.942Z,0
2017-11-27T01:41:40.782Z,0
2017-11-27T01:42:49.624Z,0
2017-11-27T01:43:58.516Z,0
2017-11-27T01:45:07.369Z,0
2017-11-27T01:46:16.193Z,0
2017-11-27T01:47:25.030Z,0
2017-11-27T01:48:33.870Z,0
2017-11-27T01:49:43.012Z,0
2017-11-27T01:50:51.852Z,0
2017-11-27T01:52:00.694Z,0
2017-11-27T01:53:09.532Z,0
2017-11-27T01:54:18.373Z,0
2017-11-27T01:55:27.366Z,0
2017-11-27T01:56:36.207Z,0
2017-11-27T01:57:45.048Z,0
2017-11-27T01:58:53.891Z,0
2017-11-27T02:00:03.017Z,0
2017-11-27T02:01:11.905Z,0
2017-11-27T02:02:20.744Z,0
2017-11-27T02:03:29.586Z,0
2017-11-27T02:04:38.425Z,0
2017-11-27T02:05:47.264Z,0
2017-11-27T02:06:56.105Z,0
2017-11-27T02:08:04.944Z,0
2017-11-27T02:09:13.780Z,0
2017-11-27T02:10:22.619Z,0
2017-11-27T02:11:31.459Z,0
2017-11-27T02:12:40.650Z,0
2017-11-27T02:13:49.489Z,0
2017-11-27T02:14:58.617Z,0
2017-11-27T02:16:07.736Z,0
2017-11-27T02:17:16.573Z,0
2017-11-27T02:18:25.565Z,0
2017-11-27T02:19:34.404Z,0
2017-11-27T02:20:43.248Z,0
2017-11-27T02:21:52.364Z,0
2017-11-27T02:23:01.202Z,0
2017-11-27T02:24:10.345Z,0
2017-11-27T02:25:19.186Z,0
2017-11-27T02:26:28.025Z,0
2017-11-27T02:27:36.864Z,0
2017-11-27T02:28:45.706Z,0
2017-11-27T02:29:55.146Z,0
2017-11-27T02:31:03.988Z,0
2017-11-27T02:32:12.831Z,0
2017-11-27T02:33:21.672Z,0
2017-11-27T02:34:30.793Z,0
2017-11-27T02:35:39.939Z,0
2017-11-27T02:36:48.781Z,0
2017-11-27T02:37:57.622Z,0
2017-11-27T02:39:06.465Z,0
2017-11-27T02:40:15.309Z,0
2017-11-27T02:41:24.343Z,0
2017-11-27T02:42:33.185Z,0
2017-11-27T02:43:42.312Z,0
2017-11-27T02:44:51.151Z,0
2017-11-27T02:45:59.991Z,0
2017-11-27T02:47:08.828Z,0
2017-11-27T02:48:17.669Z,0
2017-11-27T02:49:26.511Z,0
2017-11-27T02:50:35.360Z,0
2017-11-27T02:51:44.195Z,0
2017-11-27T02:52:53.184Z,0
2017-11-27T02:54:02.027Z,0
2017-11-27T02:55:10.868Z,0
2017-11-27T02:56:19.711Z,0
2017-11-27T02:57:28.831Z,0
2017-11-27T02:58:37.673Z,0
2017-11-27T02:59:46.790Z,0
2017-11-27T03:00:55.917Z,0
2017-11-27T03:02:05.038Z,0
2017-11-27T03:03:13.881Z,0
2017-11-27T03:04:22.721Z,0
2017-11-27T03:05:31.557Z,0
2017-11-27T03:06:40.399Z,0
2017-11-27T03:07:49.242Z,0
2017-11-27T03:08:58.083Z,0
2017-11-27T03:10:06.932Z,0
2017-11-27T03:11:15.765Z,0
2017-11-27T03:12:24.888Z,0
2017-11-27T03:13:33.728Z,0
2017-11-27T03:14:42.566Z,0
2017-11-27T03:15:51.511Z,0
2017-11-27T03:17:00.347Z,0
2017-11-27T03:18:09.189Z,0
2017-11-27T03:19:18.030Z,0
2017-11-27T03:20:26.874Z,0
2017-11-27T03:21:35.868Z,0
2017-11-27T03:22:44.704Z,0
2017-11-27T03:23:53.545Z,0
2017-11-27T03:25:02.390Z,0
2017-11-27T03:26:11.523Z,0
2017-11-27T03:27:20.364Z,0
2017-11-27T03:28:29.204Z,0
2017-11-27T03:29:38.043Z,0
2017-11-27T03:30:46.902Z,0
2017-11-27T03:31:56.025Z,0
2017-11-27T03:33:05.164Z,0
2017-11-27T03:34:14.289Z,0
2017-11-27T03:35:23.416Z,0
2017-11-27T03:36:32.250Z,0
2017-11-27T03:37:41.095Z,0
2017-11-27T03:38:50.318Z,0
2017-11-27T03:39:59.163Z,0
2017-11-27T03:41:08.011Z,0
2017-11-27T03:42:16.846Z,0
2017-11-27T03:43:25.689Z,0
2017-11-27T03:44:34.829Z,0
2017-11-27T03:45:43.668Z,0
2017-11-27T03:46:52.509Z,0
2017-11-27T03:48:01.626Z,0
2017-11-27T03:49:10.466Z,0
2017-11-27T03:50:19.304Z,0
2017-11-27T03:51:28.154Z,0
2017-11-27T03:52:36.983Z,0
2017-11-27T03:53:45.825Z,0
2017-11-27T03:54:54.955Z,0
2017-11-27T03:56:04.046Z,0
2017-11-27T03:57:13.166Z,0
2017-11-27T03:58:22.015Z,0
2017-11-27T03:59:30.850Z,0
2017-11-27T04:00:39.978Z,0
2017-11-27T04:01:49.017Z,0
2017-11-27T04:02:57.853Z,0
2017-11-27T04:04:06.973Z,0
2017-11-27T04:05:15.814Z,0
2017-11-27T04:06:24.656Z,0
2017-11-27T04:07:33.928Z,0
2017-11-27T04:08:42.770Z,0
2017-11-27T04:09:51.610Z,0
2017-11-27T04:11:00.454Z,0
2017-11-27T04:12:09.294Z,0
2017-11-27T04:13:18.718Z,0
2017-11-27T04:14:27.852Z,0
2017-11-27T04:15:36.697Z,0
2017-11-27T04:16:45.536Z,0
2017-11-27T04:17:54.660Z,0
2017-11-27T04:19:03.657Z,0
2017-11-27T04:20:12.492Z,0
2017-11-27T04:21:21.333Z,0
2017-11-27T04:22:30.171Z,0
2017-11-27T04:23:39.014Z,0
2017-11-27T04:24:47.858Z,0
2017-11-27T04:25:56.697Z,0
2017-11-27T04:27:05.537Z,0
2017-11-27T04:28:14.381Z,0
2017-11-27T04:29:23.225Z,0
2017-11-27T04:30:32.214Z,0
2017-11-27T04:31:41.052Z,0
2017-11-27T04:32:49.894Z,0
2017-11-27T04:33:58.737Z,0
2017-11-27T04:35:07.580Z,0
2017-11-27T04:36:16.521Z,0
2017-11-27T04:37:25.360Z,0
2017-11-27T04:38:34.203Z,0
2017-11-27T04:39:43.043Z,0
2017-11-27T04:40:51.886Z,0
2017-11-27T04:42:01.059Z,0
2017-11-27T04:43:09.906Z,0
2017-11-27T04:44:18.740Z,0
2017-11-27T04:45:27.577Z,0
2017-11-27T04:46:36.418Z,0
2017-11-27T04:47:45.513Z,0
2017-11-27T04:48:54.356Z,0
2017-11-27T04:50:03.196Z,0
2017-11-27T04:51:12.039Z,0
2017-11-27T04:52:21.161Z,0
2017-11-27T04:53:30.104Z,0
2017-11-27T04:54:39.230Z,0
2017-11-27T04:55:48.071Z,0
2017-11-27T04:56:56.915Z,0
2017-11-27T04:58:05.754Z,0
2017-11-27T04:59:15.024Z,0
2017-11-27T05:00:24.151Z,0
2017-11-27T05:01:32.991Z,0
2017-11-27T05:02:42.123Z,0
2017-11-27T05:03:51.247Z,0
2017-11-27T05:05:00.185Z,0
2017-11-27T05:06:09.036Z,0
2017-11-27T05:07:17.863Z,0
2017-11-27T05:08:26.708Z,0
2017-11-27T05:09:35.825Z,0
2017-11-27T05:10:44.665Z,0
2017-11-27T05:11:53.507Z,0
2017-11-27T05:13:02.347Z,0
2017-11-27T05:14:11.191Z,0
2017-11-27T05:15:20.033Z,0
2017-11-27T05:16:29.127Z,0
2017-11-27T05:17:37.970Z,0
2017-11-27T05:18:46.815Z,0
2017-11-27T05:19:55.655Z,0
2017-11-27T05:21:04.497Z,0
2017-11-27T05:22:13.485Z,0
2017-11-27T05:23:22.355Z,0
2017-11-27T05:24:31.164Z,0
2017-11-27T05:25:40.006Z,0
2017-11-27T05:26:49.127Z,0
2017-11-27T05:27:58.074Z,0
2017-11-27T05:29:06.916Z,0
2017-11-27T05:30:15.759Z,0
2017-11-27T05:31:24.612Z,0
2017-11-27T05:32:33.445Z,0
2017-11-27T05:33:42.437Z,0
2017-11-27T05:34:51.275Z,0
2017-11-27T05:36:00.118Z,0
2017-11-27T05:37:08.955Z,0
2017-11-27T05:38:17.791Z,0
2017-11-27T05:39:26.832Z,0
2017-11-27T05:40:35.964Z,0
2017-11-27T05:41:45.091Z,0
2017-11-27T05:42:53.931Z,0
2017-11-27T05:44:03.056Z,0
2017-11-27T05:45:12.200Z,0
2017-11-27T05:46:21.039Z,0
2017-11-27T05:47:29.881Z,0
2017-11-27T05:48:38.724Z,0
2017-11-27T05:49:47.853Z,0
2017-11-27T05:50:56.998Z,0
2017-11-27T05:52:05.840Z,0
2017-11-27T05:53:14.682Z,0
2017-11-27T05:54:23.523Z,0
2017-11-27T05:55:32.364Z,0
2017-11-27T05:56:41.257Z,0
2017-11-27T05:57:50.098Z,0
2017-11-27T05:58:58.939Z,0
2017-11-27T06:00:08.070Z,0
2017-11-27T06:01:16.911Z,0
2017-11-27T06:02:25.748Z,0
2017-11-27T06:03:34.589Z,0
2017-11-27T06:04:43.430Z,0
2017-11-27T06:05:52.272Z,0
2017-11-27T06:07:01.163Z,0
2017-11-27T06:08:10.007Z,0
2017-11-27T06:09:19.101Z,0
2017-11-27T06:10:27.949Z,0
2017-11-27T06:11:36.820Z,0
2017-11-27T06:12:45.663Z,0
2017-11-27T06:13:54.507Z,0
2017-11-27T06:15:03.354Z,0
2017-11-27T06:16:12.197Z,0
2017-11-27T06:17:21.419Z,0
2017-11-27T06:18:30.261Z,0
2017-11-27T06:19:39.108Z,0
2017-11-27T06:20:47.953Z,0
2017-11-27T06:21:56.793Z,0
2017-11-27T06:23:05.637Z,0
2017-11-27T06:24:14.503Z,0
2017-11-27T06:25:23.321Z,0
2017-11-27T06:26:32.170Z,0
2017-11-27T06:27:41.362Z,0
2017-11-27T06:28:50.210Z,0
2017-11-27T06:29:59.066Z,0
2017-11-27T06:31:07.908Z,0
2017-11-27T06:32:16.756Z,0
2017-11-27T06:33:25.845Z,0
2017-11-27T06:34:34.708Z,0
2017-11-27T06:35:43.855Z,0
2017-11-27T06:36:52.695Z,0
2017-11-27T06:38:01.536Z,0
2017-11-27T06:39:10.429Z,0
2017-11-27T06:40:19.270Z,0
2017-11-27T06:41:28.125Z,0
2017-11-27T06:42:36.967Z,0
2017-11-27T06:43:46.093Z,0
2017-11-27T06:44:55.085Z,0
2017-11-27T06:46:04.222Z,0
2017-11-27T06:47:13.072Z,0
2017-11-27T06:48:21.921Z,0
2017-11-27T06:49:30.773Z,0
2017-11-27T06:50:39.724Z,0
2017-11-27T06:51:48.559Z,0
2017-11-27T06:52:57.686Z,0
2017-11-27T06:54:06.529Z,0
2017-11-27T06:55:15.373Z,0
2017-11-27T06:56:24.615Z,0
2017-11-27T06:57:33.736Z,0
2017-11-27T06:58:42.586Z,0
2017-11-27T06:59:51.705Z,0
2017-11-27T07:01:00.554Z,0
2017-11-27T07:02:09.411Z,0
2017-11-27T07:03:18.253Z,5
2017-11-27T07:04:27.103Z,5
2017-11-27T07:05:35.947Z,5
2017-11-27T07:06:45.072Z,5
2017-11-27T07:07:54.196Z,5
2017-11-27T07:09:03.038Z,5
2017-11-27T07:10:11.882Z,5
2017-11-27T07:11:20.729Z,5
2017-11-27T07:12:29.573Z,5
2017-11-27T07:13:38.416Z,5
2017-11-27T07:14:47.548Z,5
2017-11-27T07:15:56.685Z,10
2017-11-27T07:17:05.530Z,10
2017-11-27T07:18:14.381Z,10
2017-11-27T07:19:23.467Z,10
2017-11-27T07:20:32.312Z,10
2017-11-27T07:21:41.548Z,10
2017-11-27T07:22:50.669Z,15
2017-11-27T07:23:59.511Z,15
2017-11-27T07:25:08.406Z,15
2017-11-27T07:26:17.247Z,15
2017-11-27T07:27:26.095Z,15
2017-11-27T07:28:34.941Z,15
2017-11-27T07:29:44.065Z,15
2017-11-27T07:30:52.959Z,20
2017-11-27T07:32:01.805Z,15
2017-11-27T07:33:10.649Z,20
2017-11-27T07:34:19.490Z,20
2017-11-27T07:35:28.616Z,20
2017-11-27T07:36:37.736Z,20
2017-11-27T07:37:46.582Z,25
2017-11-27T07:38:55.428Z,25
2017-11-27T07:40:04.272Z,25
2017-11-27T07:41:13.120Z,25
2017-11-27T07:42:22.348Z,25
2017-11-27T07:43:31.196Z,30
2017-11-27T07:44:40.039Z,30
2017-11-27T07:45:48.883Z,35
2017-11-27T07:46:57.727Z,35
2017-11-27T07:48:06.871Z,30
2017-11-27T07:49:15.715Z,30
2017-11-27T07:50:24.854Z,30
2017-11-27T07:51:33.694Z,30
2017-11-27T07:52:42.823Z,40
2017-11-27T07:53:51.816Z,40
2017-11-27T07:55:00.657Z,40
2017-11-27T07:56:09.496Z,40
2017-11-27T07:57:18.339Z,40
2017-11-27T07:58:27.475Z,45
2017-11-27T07:59:36.628Z,45
2017-11-27T08:00:45.467Z,40
2017-11-27T08:01:54.601Z,45
2017-11-27T08:03:03.729Z,50
2017-11-27T08:04:12.572Z,45
2017-11-27T08:05:21.413Z,50
2017-11-27T08:06:30.255Z,55
2017-11-27T08:07:39.100Z,45
2017-11-27T08:08:47.942Z,60
2017-11-27T08:09:57.068Z,60
2017-11-27T08:11:06.063Z,65
2017-11-27T08:12:14.907Z,65
2017-11-27T08:13:23.752Z,65
2017-11-27T08:14:32.597Z,65
2017-11-27T08:15:41.442Z,65
2017-11-27T08:16:50.719Z,65
2017-11-27T08:17:59.564Z,55
2017-11-27T08:19:08.409Z,60
2017-11-27T08:20:17.252Z,65
2017-11-27T08:21:26.094Z,60
2017-11-27T08:22:35.088Z,60
2017-11-27T08:23:43.935Z,65
2017-11-27T08:24:52.780Z,65
2017-11-27T08:26:01.624Z,60
2017-11-27T08:27:10.753Z,50
2017-11-27T08:28:20.082Z,55
2017-11-27T08:29:28.929Z,55
2017-11-27T08:30:37.773Z,55
2017-11-27T08:31:46.616Z,65
2017-11-27T08:32:55.741Z,60
2017-11-27T08:34:05.227Z,65
2017-11-27T08:35:14.360Z,70
2017-11-27T08:36:23.189Z,70
2017-11-27T08:37:32.032Z,70
2017-11-27T08:38:40.878Z,70
2017-11-27T08:39:50.107Z,65
2017-11-27T08:40:58.951Z,70
2017-11-27T08:42:07.797Z,65
2017-11-27T08:43:16.641Z,70
2017-11-27T08:44:25.484Z,75
2017-11-27T08:45:34.526Z,70
2017-11-27T08:46:43.650Z,70
2017-11-27T08:47:52.493Z,70
2017-11-27T08:49:01.628Z,70
2017-11-27T08:50:10.471Z,70
2017-11-27T08:51:19.373Z,70
2017-11-27T08:52:28.207Z,70
2017-11-27T08:53:37.047Z,75
2017-11-27T08:54:45.892Z,70
2017-11-27T08:55:54.749Z,75
2017-11-27T08:57:03.680Z,70
2017-11-27T08:58:12.526Z,75
2017-11-27T08:59:21.390Z,70
2017-11-27T09:00:30.213Z,70
2017-11-27T09:01:39.057Z,70
2017-11-27T09:02:47.958Z,80
2017-11-27T09:03:56.799Z,80
2017-11-27T09:05:05.639Z,85
2017-11-27T09:06:14.486Z,80
2017-11-27T09:07:23.322Z,85
2017-11-27T09:08:32.365Z,80
2017-11-27T09:09:41.212Z,90
2017-11-27T09:10:50.344Z,90
2017-11-27T09:11:59.238Z,85
2017-11-27T09:13:08.371Z,75
2017-11-27T09:14:17.568Z,70
2017-11-27T09:15:26.411Z,60
2017-11-27T09:16:35.252Z,55
2017-11-27T09:17:44.094Z,60
2017-11-27T09:18:52.936Z,50
2017-11-27T09:20:02.442Z,40
2017-11-27T09:21:11.284Z,35
2017-11-27T09:22:20.128Z,40
2017-11-27T09:23:28.973Z,50
2017-11-27T09:24:37.814Z,40
2017-11-27T09:25:46.758Z,45
2017-11-27T09:26:55.882Z,45
2017-11-27T09:28:04.724Z,50
2017-11-27T09:29:13.569Z,45
2017-11-27T09:30:22.695Z,45
2017-11-27T09:31:31.685Z,45
2017-11-27T09:32:40.816Z,45
2017-11-27T09:33:49.656Z,45
2017-11-27T09:34:58.498Z,45
2017-11-27T09:36:07.339Z,50
2017-11-27T09:37:16.285Z,45
2017-11-27T09:38:25.427Z,60
2017-11-27T09:39:34.260Z,45
2017-11-27T09:40:43.107Z,45
2017-11-27T09:41:51.952Z,45
2017-11-27T09:43:00.996Z,35
2017-11-27T09:44:09.838Z,40
2017-11-27T09:45:18.677Z,45
2017-11-27T09:46:27.518Z,65
2017-11-27T09:47:36.649Z,55
2017-11-27T09:48:45.537Z,60
2017-11-27T09:49:54.380Z,55
2017-11-27T09:51:03.221Z,55
2017-11-27T09:52:12.068Z,55
2017-11-27T09:53:20.910Z,45
2017-11-27T09:54:30.156Z,50
2017-11-27T09:55:38.981Z,65
2017-11-27T09:56:47.827Z,70
2017-11-27T09:57:56.668Z,60
2017-11-27T09:59:05.512Z,50
2017-11-27T10:00:14.556Z,50
2017-11-27T10:01:23.405Z,40
2017-11-27T10:02:32.258Z,55
2017-11-27T10:03:41.086Z,55
2017-11-27T10:04:49.930Z,50
2017-11-27T10:05:59.127Z,60
2017-11-27T10:07:07.969Z,60
2017-11-27T10:08:16.810Z,50
2017-11-27T10:09:25.651Z,45
2017-11-27T10:10:34.496Z,55
2017-11-27T10:11:43.485Z,60
2017-11-27T10:12:52.328Z,50
2017-11-27T10:14:01.170Z,45
2017-11-27T10:15:10.016Z,40
2017-11-27T10:16:18.858Z,45
2017-11-27T10:17:27.904Z,50
2017-11-27T10:18:36.749Z,50
2017-11-27T10:19:45.594Z,60
2017-11-27T10:20:54.438Z,60
2017-11-27T10:22:03.569Z,45
2017-11-27T10:23:12.606Z,75
2017-11-27T10:24:21.447Z,60
2017-11-27T10:25:30.295Z,70
2017-11-27T10:26:39.132Z,55
2017-11-27T10:27:48.074Z,80
2017-11-27T10:28:57.020Z,70
2017-11-27T10:30:05.873Z,70
2017-11-27T10:31:14.985Z,75
2017-11-27T10:32:23.828Z,80
2017-11-27T10:33:32.668Z,75
2017-11-27T10:34:41.662Z,80
2017-11-27T10:35:50.507Z,80
2017-11-27T10:36:59.351Z,75
2017-11-27T10:38:08.195Z,75
2017-11-27T10:39:17.038Z,80
2017-11-27T10:40:26.132Z,80
2017-11-27T10:41:34.977Z,85
2017-11-27T10:42:43.823Z,70
2017-11-27T10:43:52.665Z,70
2017-11-27T10:45:01.795Z,75
2017-11-27T10:46:10.785Z,75
2017-11-27T10:47:19.630Z,80
2017-11-27T10:48:28.475Z,70
2017-11-27T10:49:37.320Z,70
2017-11-27T10:50:46.165Z,70
2017-11-27T10:51:55.008Z,65
2017-11-27T10:53:03.853Z,75
2017-11-27T10:54:12.693Z,75
2017-11-27T10:55:21.535Z,95
2017-11-27T10:56:30.662Z,95
2017-11-27T10:57:39.658Z,105
2017-11-27T10:58:48.794Z,95
2017-11-27T10:59:57.912Z,105
2017-11-27T11:01:07.035Z,95
2017-11-27T11:02:15.884Z,85
2017-11-27T11:03:24.924Z,90
2017-11-27T11:04:33.766Z,80
2017-11-27T11:05:42.612Z,80
2017-11-27T11:06:51.454Z,75
2017-11-27T11:08:00.302Z,65
2017-11-27T11:09:09.826Z,75
2017-11-27T11:10:18.669Z,60
2017-11-27T11:11:27.512Z,65
2017-11-27T11:12:36.634Z,70
2017-11-27T11:13:45.480Z,75
2017-11-27T11:14:54.424Z,75
2017-11-27T11:16:03.265Z,70
2017-11-27T11:17:12.108Z,65
2017-11-27T11:18:20.952Z,60
2017-11-27T11:19:29.792Z,45
2017-11-27T11:20:38.637Z,45
2017-11-27T11:21:47.483Z,55
2017-11-27T11:22:56.325Z,50
2017-11-27T11:24:05.168Z,55
2017-11-27T11:25:14.012Z,55
2017-11-27T11:26:23.003Z,70
2017-11-27T11:27:31.862Z,95
2017-11-27T11:28:40.691Z,75
2017-11-27T11:29:49.533Z,60
2017-11-27T11:30:58.374Z,65
2017-11-27T11:32:07.364Z,60
2017-11-27T11:33:16.208Z,65
2017-11-27T11:34:25.052Z,65
2017-11-27T11:35:33.899Z,60
2017-11-27T11:36:43.028Z,65
2017-11-27T11:37:52.021Z,55
2017-11-27T11:39:00.866Z,45
2017-11-27T11:40:10.276Z,40
2017-11-27T11:41:19.121Z,45
2017-11-27T11:42:27.960Z,50
2017-11-27T11:43:36.907Z,55
2017-11-27T11:44:45.748Z,50
2017-11-27T11:45:54.590Z,70
2017-11-27T11:47:03.431Z,50
2017-11-27T11:48:12.273Z,55
2017-11-27T11:49:21.416Z,55
2017-11-27T11:50:30.257Z,55
2017-11-27T11:51:39.109Z,55
2017-11-27T11:52:47.946Z,45
2017-11-27T11:53:56.787Z,40
2017-11-27T11:55:05.932Z,45
2017-11-27T11:56:14.773Z,45
2017-11-27T11:57:23.615Z,50
2017-11-27T11:58:32.739Z,50
2017-11-27T11:59:41.579Z,45
2017-11-27T12:00:50.575Z,40
2017-11-27T12:01:59.718Z,45
2017-11-27T12:03:08.559Z,40
2017-11-27T12:04:17.402Z,45
2017-11-27T12:05:26.246Z,40
2017-11-27T12:06:35.192Z,45
2017-11-27T12:07:44.036Z,50
2017-11-27T12:08:53.171Z,45
2017-11-27T12:10:02.013Z,45
2017-11-27T12:11:10.859Z,40
2017-11-27T12:12:19.852Z,40
2017-11-27T12:13:28.700Z,40
2017-11-27T12:14:37.547Z,40
2017-11-27T12:15:46.382Z,40
2017-11-27T12:16:55.509Z,45
2017-11-27T12:18:04.395Z,45
2017-11-27T12:19:13.241Z,40
2017-11-27T12:20:22.086Z,35
2017-11-27T12:21:30.930Z,35
2017-11-27T12:22:39.777Z,30
2017-11-27T12:23:48.718Z,35
2017-11-27T12:24:57.560Z,40
2017-11-27T12:26:06.682Z,35
2017-11-27T12:27:15.527Z,35
2017-11-27T12:28:24.367Z,50
2017-11-27T12:29:33.209Z,40
2017-11-27T12:30:42.051Z,40
2017-11-27T12:31:50.895Z,35
2017-11-27T12:33:00.019Z,40
2017-11-27T12:34:08.865Z,35
2017-11-27T12:35:17.711Z,40
2017-11-27T12:36:26.555Z,45
2017-11-27T12:37:35.394Z,45
2017-11-27T12:38:44.238Z,45
2017-11-27T12:39:53.083Z,50
2017-11-27T12:41:01.931Z,45
2017-11-27T12:42:10.774Z,45
2017-11-27T12:43:19.616Z,45
2017-11-27T12:44:28.459Z,40
2017-11-27T12:45:37.579Z,45
2017-11-27T12:46:46.520Z,45
2017-11-27T12:47:55.364Z,35
2017-11-27T12:49:04.208Z,30
2017-11-27T12:50:13.053Z,40
2017-11-27T12:51:21.901Z,40
2017-11-27T12:52:30.843Z,40
2017-11-27T12:53:39.689Z,40
2017-11-27T12:54:48.535Z,40
2017-11-27T12:55:57.375Z,40
2017-11-27T12:57:06.219Z,40
2017-11-27T12:58:15.061Z,45
2017-11-27T12:59:23.908Z,40
2017-11-27T13:00:33.033Z,45
2017-11-27T13:01:42.188Z,40
2017-11-27T13:02:51.317Z,40
2017-11-27T13:04:00.307Z,40
2017-11-27T13:05:09.154Z,40
2017-11-27T13:06:18.243Z,40
2017-11-27T13:07:27.401Z,30
2017-11-27T13:08:36.283Z,30
2017-11-27T13:09:45.210Z,35
2017-11-27T13:10:54.072Z,30
2017-11-27T13:12:02.916Z,20
2017-11-27T13:13:11.790Z,20
2017-11-27T13:14:20.705Z,25
2017-11-27T13:15:30.148Z,30
2017-11-27T13:16:39.019Z,30
2017-11-27T13:17:48.203Z,30
2017-11-27T13:18:57.293Z,40
2017-11-27T13:20:06.465Z,40
2017-11-27T13:21:15.409Z,50
2017-11-27T13:22:24.250Z,45
2017-11-27T13:23:33.416Z,45
2017-11-27T13:24:42.607Z,55
2017-11-27T13:25:51.451Z,45
2017-11-27T13:27:00.323Z,40
2017-11-27T13:28:09.612Z,40
2017-11-27T13:29:18.792Z,40
2017-11-27T13:30:28.183Z,40
2017-11-27T13:31:37.042Z,50
2017-11-27T13:32:45.907Z,45
2017-11-27T13:33:55.023Z,60
2017-11-27T13:35:04.521Z,50
2017-11-27T13:36:13.685Z,35
2017-11-27T13:37:23.029Z,30
2017-11-27T13:38:32.249Z,35
2017-11-27T13:39:41.092Z,30
2017-11-27T13:40:49.966Z,30
2017-11-27T13:41:59.326Z,25
2017-11-27T13:43:08.514Z,35
2017-11-27T13:44:17.459Z,40
2017-11-27T13:45:26.536Z,45
2017-11-27T13:46:35.383Z,40
2017-11-27T13:47:44.247Z,30
2017-11-27T13:48:53.354Z,30
2017-11-27T13:50:02.625Z,35
2017-11-27T13:51:11.785Z,45
2017-11-27T13:52:20.679Z,40
2017-11-27T13:53:29.567Z,30
2017-11-27T13:54:38.422Z,30
2017-11-27T13:55:47.726Z,25
2017-11-27T13:56:56.626Z,20
2017-11-27T13:58:05.699Z,20
2017-11-27T13:59:14.852Z,15
2017-11-27T14:00:24.028Z,15
2017-11-27T14:01:33.665Z,20
2017-11-27T14:02:43.415Z,20
2017-11-27T14:03:52.632Z,20
2017-11-27T14:05:01.493Z,20
2017-11-27T14:06:10.340Z,15
2017-11-27T14:07:19.837Z,15
2017-11-27T14:08:29.029Z,10
2017-11-27T14:09:37.951Z,15
2017-11-27T14:10:47.471Z,15
2017-11-27T14:11:56.533Z,15
2017-11-27T14:13:05.582Z,20
2017-11-27T14:14:14.697Z,20
2017-11-27T14:15:23.626Z,15
2017-11-27T14:16:32.507Z,10
2017-11-27T14:17:41.390Z,10
2017-11-27T14:18:50.501Z,10
2017-11-27T14:19:59.367Z,10
2017-11-27T14:21:08.536Z,10
2017-11-27T14:22:17.645Z,10
2017-11-27T14:23:26.802Z,10
2017-11-27T14:24:36.635Z,10
2017-11-27T14:25:45.487Z,10
2017-11-27T14:26:54.405Z,10
2017-11-27T14:28:03.524Z,10
2017-11-27T14:29:13.556Z,10
2017-11-27T14:30:22.461Z,10
2017-11-27T14:31:31.450Z,10
2017-11-27T14:32:40.310Z,10
2017-11-27T14:33:49.158Z,10
2017-11-27T14:34:58.005Z,10
2017-11-27T14:36:07.149Z,10
2017-11-27T14:37:16.123Z,10
2017-11-27T14:38:25.491Z,10
2017-11-27T14:39:34.367Z,10
2017-11-27T14:40:43.277Z,10
2017-11-27T14:41:52.322Z,5
2017-11-27T14:43:01.378Z,10
2017-11-27T14:44:10.236Z,10
2017-11-27T14:45:19.387Z,10
2017-11-27T14:46:28.240Z,5
2017-11-27T14:47:37.183Z,5
2017-11-27T14:48:46.317Z,5
2017-11-27T14:49:55.440Z,5
2017-11-27T14:51:04.283Z,5
2017-11-27T14:52:13.130Z,5
2017-11-27T14:53:22.075Z,5
2017-11-27T14:54:30.917Z,5
2017-11-27T14:55:39.780Z,5
2017-11-27T14:56:48.885Z,0
2017-11-27T14:57:58.010Z,5
2017-11-27T14:59:07.055Z,5
2017-11-27T15:00:15.895Z,5
2017-11-27T15:01:24.742Z,0
2017-11-27T15:02:33.589Z,5
2017-11-27T15:03:42.433Z,0
2017-11-27T15:04:51.561Z,0
2017-11-27T15:06:00.405Z,5
2017-11-27T15:07:09.273Z,5
2017-11-27T15:08:18.116Z,5
2017-11-27T15:09:26.963Z,0
2017-11-27T15:10:36.084Z,0
2017-11-27T15:11:45.029Z,0
2017-11-27T15:12:54.179Z,0
2017-11-27T15:14:03.192Z,0
2017-11-27T15:15:12.135Z,0
2017-11-27T15:16:21.038Z,0
2017-11-27T15:17:30.705Z,0
2017-11-27T15:18:39.942Z,0
2017-11-27T15:19:48.791Z,0
2017-11-27T15:20:57.647Z,0
2017-11-27T15:22:06.508Z,0
2017-11-27T15:23:15.642Z,0
2017-11-27T15:24:24.498Z,0
2017-11-27T15:25:33.635Z,0
2017-11-27T15:26:42.498Z,0
2017-11-27T15:27:51.343Z,0
2017-11-27T15:29:00.199Z,0
2017-11-27T15:30:09.057Z,0
2017-11-27T15:31:17.940Z,0
2017-11-27T15:32:26.785Z,0
2017-11-27T15:33:35.630Z,0
2017-11-27T15:34:44.483Z,0
2017-11-27T15:35:53.477Z,0
2017-11-27T15:37:02.326Z,0
2017-11-27T15:38:11.170Z,0
2017-11-27T15:39:20.015Z,0
2017-11-27T15:40:28.860Z,0
2017-11-27T15:41:37.907Z,0
2017-11-27T15:42:46.754Z,0
2017-11-27T15:43:55.600Z,0
2017-11-27T15:45:04.449Z,0
2017-11-27T15:46:13.573Z,0
2017-11-27T15:47:22.674Z,0
2017-11-27T15:48:31.519Z,0
2017-11-27T15:49:40.381Z,0
2017-11-27T15:50:49.230Z,0
2017-11-27T15:51:58.075Z,0
2017-11-27T15:53:07.376Z,0
2017-11-27T15:54:16.221Z,0
2017-11-27T15:55:25.066Z,0
2017-11-27T15:56:33.914Z,0
2017-11-27T15:57:42.773Z,0
2017-11-27T15:58:51.663Z,0
2017-11-27T16:00:00.511Z,0
2017-11-27T16:01:09.360Z,0
2017-11-27T16:02:18.202Z,0
2017-11-27T16:03:27.047Z,0
2017-11-27T16:04:35.893Z,0
2017-11-27T16:05:44.737Z,0
2017-11-27T16:06:53.623Z,0
2017-11-27T16:08:02.430Z,0
2017-11-27T16:09:11.276Z,0
2017-11-27T16:10:20.123Z,0
2017-11-27T16:11:28.968Z,0
2017-11-27T16:12:37.813Z,0
2017-11-27T16:13:46.674Z,0
2017-11-27T16:14:55.850Z,0
2017-11-27T16:16:04.716Z,0
2017-11-27T16:17:13.552Z,0
2017-11-27T16:18:22.438Z,0
2017-11-27T16:19:31.292Z,0
2017-11-27T16:20:40.133Z,0
2017-11-27T16:21:48.999Z,0
2017-11-27T16:22:57.824Z,0
2017-11-27T16:24:06.667Z,0
2017-11-27T16:25:15.513Z,0
2017-11-27T16:26:24.358Z,0
2017-11-27T16:27:33.202Z,0
2017-11-27T16:28:42.048Z,0
2017-11-27T16:29:51.191Z,0
2017-11-27T16:31:00.037Z,0
2017-11-27T16:32:08.885Z,0
2017-11-27T16:33:17.736Z,0
2017-11-27T16:34:26.857Z,0
2017-11-27T16:35:35.855Z,0
2017-11-27T16:36:44.699Z,0
2017-11-27T16:37:53.543Z,0
2017-11-27T16:39:02.384Z,0
2017-11-27T16:40:11.230Z,0
2017-11-27T16:41:20.275Z,0
2017-11-27T16:42:29.404Z,0